createdAt,value
2022-11-08T00:00:56.876Z,3.31
2022-11-08T00:03:26.242Z,3.32
2022-11-08T00:06:14.155Z,3.35
2022-11-08T00:09:01.103Z,3.39
2022-11-08T00:11:49.519Z,3.44
2022-11-08T00:14:18.991Z,3.43
2022-11-08T00:16:48.355Z,3.42
2022-11-08T00:19:17.858Z,3.36
2022-11-08T00:21:47.248Z,3.31
2022-11-08T00:24:16.601Z,3.32
2022-11-08T00:26:47.479Z,3.37
2022-11-08T00:29:17.197Z,3.40
2022-11-08T00:31:46.605Z,3.45
2022-11-08T00:34:16.062Z,3.49
2022-11-08T00:36:45.437Z,3.50
2022-11-08T00:39:14.965Z,3.49
2022-11-08T00:41:45.710Z,3.48
2022-11-08T00:44:15.096Z,3.43
2022-11-08T00:46:44.796Z,3.37
2022-11-08T00:49:14.206Z,3.31
2022-11-08T00:51:43.823Z,3.23
2022-11-08T00:54:18.975Z,3.16
2022-11-08T00:56:50.715Z,3.13
2022-11-08T00:59:21.156Z,3.15
2022-11-08T01:01:50.867Z,3.21
2022-11-08T01:04:21.312Z,3.27
2022-11-08T01:06:50.809Z,3.35
2022-11-08T01:09:20.211Z,3.29
2022-11-08T01:11:51.072Z,3.21
2022-11-08T01:14:20.471Z,3.13
2022-11-08T01:16:49.873Z,3.02
2022-11-08T01:19:19.243Z,2.91
2022-11-08T01:21:48.635Z,2.81
2022-11-08T01:24:18.990Z,2.77
2022-11-08T01:26:51.733Z,2.78
2022-11-08T01:29:21.227Z,2.78
2022-11-08T01:31:50.599Z,2.72
2022-11-08T01:34:19.989Z,2.69
2022-11-08T01:36:49.395Z,2.63
2022-11-08T01:39:18.822Z,2.58
2022-11-08T01:41:48.216Z,2.54
2022-11-08T01:44:21.681Z,2.55
2022-11-08T01:46:51.094Z,2.51
2022-11-08T01:49:44.472Z,2.44
2022-11-08T01:52:30.131Z,2.34
2022-11-08T01:55:13.736Z,2.30
2022-11-08T01:57:50.588Z,2.27
2022-11-08T02:00:21.737Z,2.24
2022-11-08T02:03:00.979Z,2.19
2022-11-08T02:05:31.793Z,2.13
2022-11-08T02:08:09.399Z,2.06
2022-11-08T02:10:42.334Z,2.02
2022-11-08T02:13:17.375Z,1.99
2022-11-08T02:15:48.556Z,1.95
2022-11-08T02:18:23.598Z,1.90
2022-11-08T02:21:09.837Z,1.85
2022-11-08T02:23:48.110Z,1.81
2022-11-08T02:26:20.610Z,1.77
2022-11-08T02:28:51.164Z,1.75
2022-11-08T02:31:21.300Z,1.74
2022-11-08T02:33:51.311Z,1.70
2022-11-08T02:36:24.226Z,1.68
2022-11-08T02:38:58.568Z,1.69
2022-11-08T02:41:27.919Z,1.67
2022-11-08T02:43:58.902Z,1.63
2022-11-08T02:46:28.368Z,1.58
2022-11-08T02:48:57.756Z,1.51
2022-11-08T02:51:27.135Z,1.45
2022-11-08T02:53:57.977Z,1.45
2022-11-08T02:56:27.360Z,1.49
2022-11-08T02:58:56.722Z,1.49
2022-11-08T03:01:27.871Z,1.46
2022-11-08T03:03:57.322Z,1.44
2022-11-08T03:06:26.864Z,1.42
2022-11-08T03:08:57.594Z,1.44
2022-11-08T03:11:27.024Z,1.46
2022-11-08T03:13:56.442Z,1.43
2022-11-08T03:16:26.154Z,1.33
2022-11-08T03:18:55.548Z,1.32
2022-11-08T03:21:24.958Z,1.36
2022-11-08T03:23:54.356Z,1.42
2022-11-08T03:26:25.119Z,1.40
2022-11-08T03:28:56.264Z,1.38
2022-11-08T03:31:25.927Z,1.32
2022-11-08T03:33:55.667Z,1.32
2022-11-08T03:36:25.520Z,1.31
2022-11-08T03:38:54.939Z,1.31
2022-11-08T03:41:26.331Z,1.28
2022-11-08T03:43:56.148Z,1.24
2022-11-08T03:46:25.630Z,1.18
2022-11-08T03:48:55.549Z,1.13
2022-11-08T03:51:25.218Z,1.12
2022-11-08T03:53:54.709Z,1.12
2022-11-08T03:56:25.702Z,1.13
2022-11-08T03:58:55.428Z,1.08
2022-11-08T04:01:28.238Z,1.04
2022-11-08T04:03:57.979Z,1.05
2022-11-08T04:06:27.597Z,1.10
2022-11-08T04:08:57.035Z,1.11
2022-11-08T04:11:45.455Z,1.09
2022-11-08T04:14:32.388Z,1.13
2022-11-08T04:17:01.779Z,1.14
2022-11-08T04:19:48.624Z,1.14
2022-11-08T04:22:18.331Z,1.23
2022-11-08T04:24:47.933Z,1.18
2022-11-08T04:27:18.919Z,1.11
2022-11-08T04:29:48.297Z,1.07
2022-11-08T04:32:17.858Z,0.98
2022-11-08T04:34:47.432Z,0.95
2022-11-08T04:37:16.855Z,0.96
2022-11-08T04:39:46.322Z,0.92
2022-11-08T04:42:15.755Z,0.89
2022-11-08T04:44:46.464Z,0.92
2022-11-08T04:47:15.948Z,0.95
2022-11-08T04:49:45.428Z,0.94
2022-11-08T04:52:16.531Z,0.90
2022-11-08T04:54:45.920Z,0.85
2022-11-08T04:57:18.376Z,0.75
2022-11-08T04:59:49.587Z,0.69
2022-11-08T05:02:19.199Z,0.67
2022-11-08T05:04:48.827Z,0.60
2022-11-08T05:07:18.343Z,0.57
2022-11-08T05:09:47.754Z,0.52
2022-11-08T05:12:17.277Z,0.49
2022-11-08T05:14:47.999Z,0.47
2022-11-08T05:17:18.480Z,0.46
2022-11-08T05:20:05.343Z,0.47
2022-11-08T05:22:52.320Z,0.49
2022-11-08T05:25:21.715Z,0.51
2022-11-08T05:27:51.083Z,0.49
2022-11-08T05:30:21.878Z,0.46
2022-11-08T05:32:52.826Z,0.41
2022-11-08T05:35:22.948Z,0.38
2022-11-08T05:37:52.331Z,0.34
2022-11-08T05:40:21.843Z,0.29
2022-11-08T05:42:51.288Z,0.25
2022-11-08T05:45:22.783Z,0.25
2022-11-08T05:47:52.155Z,0.26
2022-11-08T05:50:21.768Z,0.27
2022-11-08T05:52:52.044Z,0.20
2022-11-08T05:55:21.537Z,0.20
2022-11-08T05:57:51.013Z,0.26
2022-11-08T06:00:23.111Z,0.30
2022-11-08T06:02:52.537Z,0.34
2022-11-08T06:05:22.143Z,0.33
2022-11-08T06:07:54.021Z,0.30
2022-11-08T06:10:23.526Z,0.29
2022-11-08T06:12:53.287Z,0.29
2022-11-08T06:15:23.983Z,0.36
2022-11-08T06:17:53.921Z,0.41
2022-11-08T06:20:23.595Z,0.49
2022-11-08T06:22:53.056Z,0.50
2022-11-08T06:25:22.840Z,0.48
2022-11-08T06:27:52.389Z,0.52
2022-11-08T06:30:23.186Z,0.56
2022-11-08T06:32:52.559Z,0.59
2022-11-08T06:35:21.996Z,0.61
2022-11-08T06:37:51.364Z,0.65
2022-11-08T06:40:23.811Z,0.67
2022-11-08T06:42:54.406Z,0.72
2022-11-08T06:45:25.444Z,0.73
2022-11-08T06:47:59.143Z,0.72
2022-11-08T06:50:29.840Z,0.70
2022-11-08T06:53:00.297Z,0.71
2022-11-08T06:55:30.423Z,0.75
2022-11-08T06:57:59.989Z,0.78
2022-11-08T07:00:31.291Z,0.83
2022-11-08T07:03:04.573Z,0.92
2022-11-08T07:05:36.516Z,1.01
2022-11-08T07:08:06.684Z,1.13
2022-11-08T07:10:36.453Z,1.19
2022-11-08T07:13:10.530Z,1.26
2022-11-08T07:15:42.697Z,1.32
2022-11-08T07:18:15.571Z,1.37
2022-11-08T07:20:45.119Z,1.42
2022-11-08T07:23:15.115Z,1.48
2022-11-08T07:25:44.746Z,1.53
2022-11-08T07:28:18.428Z,1.58
2022-11-08T07:30:50.603Z,1.62
2022-11-08T07:33:20.417Z,1.66
2022-11-08T07:35:50.104Z,1.75
2022-11-08T07:38:19.577Z,1.81
2022-11-08T07:40:52.556Z,1.88
2022-11-08T07:43:21.999Z,1.95
2022-11-08T07:45:57.484Z,2.02
2022-11-08T07:48:31.558Z,2.09
2022-11-08T07:51:01.213Z,2.14
2022-11-08T07:53:31.255Z,2.23
2022-11-08T07:56:00.662Z,2.29
2022-11-08T07:58:30.067Z,2.40
2022-11-08T08:01:04.670Z,2.53
2022-11-08T08:03:34.388Z,2.66
2022-11-08T08:06:03.886Z,2.78
2022-11-08T08:08:33.338Z,2.89
2022-11-08T08:11:05.024Z,2.97
2022-11-08T08:13:34.486Z,3.02
2022-11-08T08:16:06.350Z,3.11
2022-11-08T08:18:36.519Z,3.26
2022-11-08T08:21:06.082Z,3.37
2022-11-08T08:23:35.482Z,3.48
2022-11-08T08:26:04.904Z,3.59
2022-11-08T08:28:34.579Z,3.72
2022-11-08T08:31:07.960Z,3.80
2022-11-08T08:33:38.118Z,3.88
2022-11-08T08:36:08.919Z,3.95
2022-11-08T08:38:44.084Z,4.04
2022-11-08T08:41:14.113Z,4.18
2022-11-08T08:43:43.523Z,4.29
2022-11-08T08:46:20.987Z,4.40
2022-11-08T08:48:50.675Z,4.53
2022-11-08T08:51:20.324Z,4.66
2022-11-08T08:53:49.797Z,4.82
2022-11-08T08:56:19.209Z,4.96
2022-11-08T09:01:40.137Z,5.27
2022-11-08T09:04:09.886Z,5.43
2022-11-08T09:06:39.340Z,5.56
2022-11-08T09:09:08.841Z,5.72
2022-11-08T09:11:38.269Z,5.83
2022-11-08T09:14:07.682Z,5.95
2022-11-08T09:16:38.739Z,6.06
2022-11-08T09:19:08.146Z,6.22
2022-11-08T09:21:37.626Z,6.40
2022-11-08T09:24:08.044Z,6.52
2022-11-08T09:26:37.420Z,6.61
2022-11-08T09:29:06.790Z,6.67
2022-11-08T09:31:36.194Z,6.73
2022-11-08T09:34:06.981Z,6.78
2022-11-08T09:36:36.432Z,6.85
2022-11-08T09:39:05.939Z,6.90
2022-11-08T09:42:22.180Z,6.93
2022-11-08T09:45:27.509Z,7.03
2022-11-08T09:48:05.244Z,7.10
2022-11-08T09:50:43.022Z,7.27
2022-11-08T09:53:20.491Z,7.41
2022-11-08T09:55:56.531Z,7.51
2022-11-08T09:58:35.723Z,7.63
2022-11-08T10:01:06.251Z,7.75
2022-11-08T10:03:35.630Z,7.95
2022-11-08T10:06:39.903Z,8.11
2022-11-08T10:09:39.374Z,8.22
2022-11-08T10:12:22.359Z,8.33
2022-11-08T10:15:15.899Z,8.40
2022-11-08T10:18:11.477Z,8.46
2022-11-08T10:21:00.911Z,8.58
2022-11-08T10:23:44.641Z,8.68
2022-11-08T10:26:24.108Z,8.84
2022-11-08T10:29:04.593Z,9.04
2022-11-08T10:31:36.927Z,9.20
2022-11-08T10:34:15.941Z,9.36
2022-11-08T10:36:49.447Z,9.48
2022-11-08T10:39:26.118Z,9.58
2022-11-08T10:42:06.261Z,9.63
2022-11-08T10:44:36.000Z,9.67
2022-11-08T10:47:11.868Z,9.72
2022-11-08T10:49:44.041Z,9.73
2022-11-08T10:52:25.724Z,9.78
2022-11-08T10:54:58.429Z,9.84
2022-11-08T10:57:39.749Z,9.93
2022-11-08T11:00:31.321Z,10.02
2022-11-08T11:03:03.542Z,10.12
2022-11-08T11:05:37.385Z,10.25
2022-11-08T11:08:19.182Z,10.40
2022-11-08T11:10:51.421Z,10.54
2022-11-08T11:13:24.997Z,10.67
2022-11-08T11:16:03.067Z,10.80
2022-11-08T11:18:36.259Z,10.91
2022-11-08T11:21:13.314Z,10.98
2022-11-08T11:23:46.811Z,10.97
2022-11-08T11:26:31.976Z,10.99
2022-11-08T11:29:19.195Z,11.00
2022-11-08T11:31:54.014Z,11.03
2022-11-08T11:34:49.850Z,11.11
2022-11-08T11:37:40.836Z,11.18
2022-11-08T11:40:20.920Z,11.24
2022-11-08T11:43:03.293Z,11.35
2022-11-08T11:45:43.096Z,11.41
2022-11-08T11:48:19.519Z,11.44
2022-11-08T11:50:51.555Z,11.49
2022-11-08T11:53:25.729Z,11.54
2022-11-08T11:56:46.719Z,11.68
2022-11-08T11:59:53.379Z,11.85
2022-11-08T12:03:17.869Z,12.13
2022-11-08T12:06:21.191Z,12.26
2022-11-08T12:09:10.476Z,12.41
2022-11-08T12:11:56.215Z,12.68
2022-11-08T12:14:50.113Z,12.78
2022-11-08T12:17:53.256Z,12.96
2022-11-08T12:20:40.319Z,13.07
2022-11-08T12:23:42.151Z,13.14
2022-11-08T12:26:22.571Z,13.21
2022-11-08T12:29:12.784Z,13.36
2022-11-08T12:32:01.039Z,13.53
2022-11-08T12:34:46.120Z,13.67
2022-11-08T12:37:32.641Z,13.84
2022-11-08T12:40:07.014Z,13.96
2022-11-08T12:43:02.388Z,14.05
2022-11-08T12:45:50.741Z,14.20
2022-11-08T12:49:07.012Z,14.40
2022-11-08T12:51:58.020Z,14.49
2022-11-08T12:54:36.689Z,14.63
2022-11-08T12:57:13.007Z,14.68
2022-11-08T12:59:46.760Z,14.73
2022-11-08T13:02:23.507Z,14.82
2022-11-08T13:05:04.951Z,14.94
2022-11-08T13:07:46.583Z,15.08
2022-11-08T13:10:35.868Z,15.21
2022-11-08T13:13:24.554Z,15.35
2022-11-08T13:16:15.728Z,15.39
2022-11-08T13:18:50.334Z,15.56
2022-11-08T13:21:41.084Z,15.76
2022-11-08T13:24:46.769Z,15.98
2022-11-08T13:27:37.007Z,16.35
2022-11-08T13:30:39.714Z,16.73
2022-11-08T13:33:26.652Z,17.12
2022-11-08T13:36:12.905Z,17.53
2022-11-08T13:38:58.308Z,17.90
2022-11-08T13:41:28.311Z,18.31
2022-11-08T13:43:59.685Z,18.60
2022-11-08T13:46:49.900Z,18.59
2022-11-08T13:49:24.143Z,18.27
2022-11-08T13:52:47.046Z,17.88
2022-11-08T13:55:47.267Z,17.35
2022-11-08T13:58:35.264Z,16.88
2022-11-08T14:01:08.477Z,16.49
2022-11-08T14:03:58.641Z,16.10
2022-11-08T14:06:36.678Z,15.85
2022-11-08T14:09:22.627Z,15.68
2022-11-08T14:12:02.176Z,15.45
2022-11-08T14:14:49.168Z,15.29
2022-11-08T14:17:41.880Z,15.10
2022-11-08T14:20:33.151Z,14.95
2022-11-08T14:23:21.124Z,14.88
2022-11-08T14:25:57.365Z,14.79
2022-11-08T14:28:32.506Z,14.67
2022-11-08T14:31:05.649Z,14.54
2022-11-08T14:33:43.045Z,14.44
2022-11-08T14:36:19.607Z,14.41
2022-11-08T14:38:57.315Z,14.79
2022-11-08T14:41:30.504Z,15.32
2022-11-08T14:44:04.165Z,15.79
2022-11-08T14:46:38.914Z,16.13
2022-11-08T14:49:21.464Z,16.43
2022-11-08T14:52:13.610Z,16.66
2022-11-08T14:54:47.175Z,16.93
2022-11-08T14:57:38.147Z,17.17
2022-11-08T15:00:19.961Z,17.35
2022-11-08T15:02:53.987Z,17.35
2022-11-08T15:05:38.506Z,17.13
2022-11-08T15:08:22.126Z,16.77
2022-11-08T15:11:02.142Z,16.35
2022-11-08T15:13:40.320Z,15.88
2022-11-08T15:16:12.512Z,15.48
2022-11-08T15:18:44.743Z,15.16
2022-11-08T15:21:30.078Z,14.84
2022-11-08T15:24:15.999Z,14.52
2022-11-08T15:27:05.544Z,14.20
2022-11-08T15:29:53.058Z,13.74
2022-11-08T15:32:24.179Z,13.34
2022-11-08T15:34:58.433Z,12.95
2022-11-08T15:37:36.766Z,12.59
2022-11-08T15:40:18.773Z,12.30
2022-11-08T15:42:50.779Z,12.03
2022-11-08T15:45:32.375Z,11.71
2022-11-08T15:48:20.034Z,11.44
2022-11-08T15:50:50.692Z,11.17
2022-11-08T15:53:21.919Z,10.96
2022-11-08T15:55:55.001Z,10.74
2022-11-08T15:58:28.160Z,10.49
2022-11-08T16:01:01.440Z,10.34
2022-11-08T16:03:33.640Z,10.18
2022-11-08T16:06:03.034Z,10.12
2022-11-08T16:08:32.615Z,10.04
2022-11-08T16:11:02.522Z,9.93
2022-11-08T16:13:36.176Z,9.72
2022-11-08T16:16:13.085Z,9.59
2022-11-08T16:18:44.316Z,9.44
2022-11-08T16:21:15.533Z,9.23
2022-11-08T16:23:44.997Z,9.10
2022-11-08T16:26:20.272Z,8.95
2022-11-08T16:28:49.860Z,8.79
2022-11-08T16:31:19.468Z,8.66
2022-11-08T16:33:53.910Z,8.57
2022-11-08T16:36:27.599Z,8.44
2022-11-08T16:38:59.351Z,8.35
2022-11-08T16:41:28.886Z,8.28
2022-11-08T16:44:00.174Z,8.20
2022-11-08T16:46:30.514Z,8.12
2022-11-08T16:49:01.504Z,8.06
2022-11-08T16:51:30.886Z,8.00
2022-11-08T16:54:03.388Z,7.92
2022-11-08T16:56:32.855Z,7.85
2022-11-08T16:59:02.180Z,7.80
2022-11-08T17:01:34.853Z,7.74
2022-11-08T17:04:06.064Z,7.68
2022-11-08T17:06:35.593Z,7.62
2022-11-08T17:09:05.438Z,7.57
2022-11-08T17:11:34.930Z,7.52
2022-11-08T17:14:04.803Z,7.44
2022-11-08T17:16:34.441Z,7.39
2022-11-08T17:19:06.439Z,7.28
2022-11-08T17:21:44.661Z,7.25
2022-11-08T17:24:21.317Z,7.21
2022-11-08T17:26:52.003Z,7.17
2022-11-08T17:29:21.651Z,7.13
2022-11-08T17:31:51.627Z,7.16
2022-11-08T17:34:22.383Z,7.20
2022-11-08T17:36:53.009Z,7.23
2022-11-08T17:39:22.384Z,7.23
2022-11-08T17:41:51.758Z,7.19
2022-11-08T17:44:21.166Z,7.11
2022-11-08T17:46:50.657Z,7.03
2022-11-08T17:49:22.298Z,6.97
2022-11-08T17:51:51.698Z,6.92
2022-11-08T17:54:21.126Z,6.90
2022-11-08T17:56:50.619Z,6.87
2022-11-08T17:59:20.661Z,6.87
2022-11-08T18:01:50.916Z,6.88
2022-11-08T18:04:21.944Z,6.89
2022-11-08T18:06:51.369Z,6.91
2022-11-08T18:09:21.051Z,6.93
2022-11-08T18:11:50.836Z,6.94
2022-11-08T18:14:28.264Z,6.94
2022-11-08T18:16:59.698Z,6.94
2022-11-08T18:19:30.474Z,6.95
2022-11-08T18:22:00.347Z,6.93
2022-11-08T18:24:29.763Z,6.95
2022-11-08T18:26:59.934Z,6.99
2022-11-08T18:29:29.348Z,6.95
2022-11-08T18:31:59.191Z,6.94
2022-11-08T18:34:30.579Z,6.95
2022-11-08T18:36:59.927Z,6.92
2022-11-08T18:39:29.314Z,6.94
2022-11-08T18:41:58.674Z,6.93
2022-11-08T18:44:28.049Z,6.93
2022-11-08T18:46:58.230Z,6.95
2022-11-08T18:49:30.911Z,6.97
2022-11-08T18:52:00.521Z,7.02
2022-11-08T18:54:29.874Z,7.04
2022-11-08T18:56:59.241Z,7.04
2022-11-08T18:59:28.643Z,7.04
2022-11-08T19:01:58.116Z,7.06
2022-11-08T19:04:27.732Z,7.10
2022-11-08T19:06:58.547Z,7.07
2022-11-08T19:09:27.911Z,7.03
2022-11-08T19:12:01.689Z,6.99
2022-11-08T19:14:35.316Z,6.95
2022-11-08T19:17:04.763Z,6.92
2022-11-08T19:19:34.140Z,6.95
2022-11-08T19:22:05.344Z,6.95
2022-11-08T19:24:34.721Z,7.00
2022-11-08T19:27:04.269Z,7.15
2022-11-08T19:29:33.718Z,7.33
2022-11-08T19:32:03.087Z,7.40
2022-11-08T19:34:33.548Z,7.49
2022-11-08T19:37:04.399Z,7.58
2022-11-08T19:39:33.834Z,7.73
2022-11-08T19:42:03.348Z,7.83
2022-11-08T19:44:32.771Z,7.85
2022-11-08T19:47:02.146Z,7.85
2022-11-08T19:49:31.819Z,7.90
2022-11-08T19:52:01.197Z,7.88
2022-11-08T19:54:31.969Z,7.86
2022-11-08T19:57:05.775Z,7.82
2022-11-08T19:59:35.774Z,7.79
2022-11-08T20:02:05.308Z,7.81
2022-11-08T20:04:34.942Z,7.85
2022-11-08T20:07:04.415Z,7.87
2022-11-08T20:09:35.711Z,7.84
2022-11-08T20:12:05.690Z,7.82
2022-11-08T20:14:35.299Z,7.76
2022-11-08T20:17:04.704Z,7.69
2022-11-08T20:19:34.060Z,7.59
2022-11-08T20:22:03.477Z,7.47
2022-11-08T20:24:34.419Z,7.38
2022-11-08T20:27:03.889Z,7.33
2022-11-08T20:29:33.555Z,7.24
2022-11-08T20:32:03.755Z,7.14
2022-11-08T20:34:33.226Z,7.02
2022-11-08T20:37:02.616Z,6.90
2022-11-08T20:39:33.576Z,6.76
2022-11-08T20:42:04.638Z,6.70
2022-11-08T20:44:34.013Z,6.60
2022-11-08T20:47:06.640Z,6.52
2022-11-08T20:49:36.553Z,6.49
2022-11-08T20:52:05.958Z,6.50
2022-11-08T20:54:38.791Z,6.46
2022-11-08T20:57:12.139Z,6.44
2022-11-08T20:59:41.526Z,6.40
2022-11-08T21:02:12.695Z,6.37
2022-11-08T21:04:42.212Z,6.34
2022-11-08T21:10:20.267Z,6.18
2022-11-08T21:12:52.701Z,6.09
2022-11-08T21:15:26.890Z,5.95
2022-11-08T21:17:56.677Z,5.82
2022-11-08T21:20:26.771Z,5.68
2022-11-08T21:22:56.312Z,5.59
2022-11-08T21:25:25.783Z,5.57
2022-11-08T21:27:56.605Z,5.56
2022-11-08T21:30:26.130Z,5.56
2022-11-08T21:32:55.540Z,5.57
2022-11-08T21:35:25.003Z,5.59
2022-11-08T21:37:54.420Z,5.55
2022-11-08T21:40:23.818Z,5.44
2022-11-08T21:42:53.218Z,5.34
2022-11-08T21:45:26.013Z,5.25
2022-11-08T21:47:56.333Z,5.15
2022-11-08T21:50:26.642Z,5.08
2022-11-08T21:52:56.227Z,5.03
2022-11-08T21:55:25.612Z,4.94
2022-11-08T21:57:55.048Z,4.86
2022-11-08T22:00:25.925Z,4.79
2022-11-08T22:02:55.726Z,4.76
2022-11-08T22:05:25.206Z,4.73
2022-11-08T22:07:54.675Z,4.69
2022-11-08T22:10:24.137Z,4.66
2022-11-08T22:12:53.534Z,4.68
2022-11-08T22:15:22.920Z,4.71
2022-11-08T22:18:14.855Z,4.71
2022-11-08T22:21:07.220Z,4.72
2022-11-08T22:23:37.563Z,4.63
2022-11-08T22:26:07.509Z,4.57
2022-11-08T22:28:39.888Z,4.51
2022-11-08T22:31:09.334Z,4.41
2022-11-08T22:33:40.135Z,4.37
2022-11-08T22:36:11.631Z,4.31
2022-11-08T22:38:41.230Z,4.27
2022-11-08T22:41:10.853Z,4.22
2022-11-08T22:43:40.291Z,4.19
2022-11-08T22:46:09.758Z,4.17
2022-11-08T22:48:40.933Z,4.16
2022-11-08T22:51:10.860Z,4.16
2022-11-08T22:53:41.279Z,4.13
2022-11-08T22:56:12.107Z,4.12
2022-11-08T22:58:41.628Z,4.09
2022-11-08T23:01:14.951Z,4.13
2022-11-08T23:03:47.609Z,4.16
2022-11-08T23:06:17.365Z,4.18
2022-11-08T23:08:48.490Z,4.21
2022-11-08T23:11:35.033Z,4.22
2022-11-08T23:14:22.973Z,4.20
2022-11-08T23:16:52.371Z,4.18
2022-11-08T23:19:42.471Z,4.15
2022-11-08T23:22:32.681Z,4.15
2022-11-08T23:25:02.185Z,4.14
2022-11-08T23:27:49.865Z,4.12
2022-11-08T23:30:38.440Z,4.09
2022-11-08T23:33:08.177Z,4.03
2022-11-08T23:35:59.021Z,3.98
2022-11-08T23:38:28.488Z,3.94
2022-11-08T23:41:18.394Z,3.91
2022-11-08T23:44:05.373Z,3.90
2022-11-08T23:46:36.867Z,3.85
2022-11-08T23:49:06.752Z,3.82
2022-11-08T23:51:37.839Z,3.80
2022-11-08T23:54:07.305Z,3.76
2022-11-08T23:56:36.660Z,3.77
2022-11-08T23:59:06.256Z,3.72
